Time;durP1;ratioP1;P1;durP2;ratioP2;P2;SDS_P1;SDS_P2;PMS_P1;PMS_P2;Temp;Humidity;BMP_temperature;BMP_pressure;BME280_temperature;BME280_humidity;BME280_pressure;Samples;Min_cycle;Max_cycle;Signal;HPM_P1;HPM_P2
2022/07/30 00:00:10;;;;;;;3.50;3.20;;;24.60;66.70;;;;;;4956914;28;20455;-69
2022/07/30 00:02:40;;;;;;;5.73;3.00;;;24.60;66.50;;;;;;4969349;28;20502;-71
2022/07/30 00:05:07;;;;;;;3.83;3.40;;;24.60;66.50;;;;;;4955243;29;20434;-69
2022/07/30 00:07:35;;;;;;;5.77;3.53;;;24.60;66.40;;;;;;4954094;28;20513;-69
2022/07/30 00:10:04;;;;;;;6.27;4.60;;;24.50;66.30;;;;;;4969449;28;20440;-71
2022/07/30 00:12:30;;;;;;;4.97;3.73;;;24.50;66.20;;;;;;4972987;28;20435;-69
2022/07/30 00:14:58;;;;;;;7.40;4.33;;;24.50;66.40;;;;;;4968942;28;20530;-69
2022/07/30 00:17:25;;;;;;;5.17;4.67;;;24.50;66.60;;;;;;4937979;29;20539;-71
2022/07/30 00:19:58;;;;;;;6.10;5.23;;;24.50;66.60;;;;;;4978112;28;21037;-69
2022/07/30 00:22:23;;;;;;;4.40;3.87;;;24.50;66.50;;;;;;4989366;28;20403;-69
2022/07/30 00:24:52;;;;;;;5.20;3.90;;;24.50;66.50;;;;;;4969594;28;20428;-69
2022/07/30 00:27:18;;;;;;;6.80;4.90;;;24.50;66.60;;;;;;4964659;28;20517;-69
2022/07/30 00:29:44;;;;;;;8.93;4.90;;;24.40;66.60;;;;;;4956468;28;20433;-69
2022/07/30 00:32:12;;;;;;;9.80;5.50;;;24.40;66.60;;;;;;4973450;28;21171;-71
2022/07/30 00:34:39;;;;;;;5.90;4.67;;;24.40;66.60;;;;;;4953665;29;20398;-69
2022/07/30 00:37:05;;;;;;;6.73;5.70;;;24.40;66.50;;;;;;4959009;28;20792;-71
2022/07/30 00:39:31;;;;;;;5.93;4.20;;;24.40;66.50;;;;;;4973754;28;20822;-71
2022/07/30 00:41:59;;;;;;;5.47;4.37;;;24.40;66.60;;;;;;4972431;28;20441;-71
2022/07/30 00:44:27;;;;;;;5.40;4.40;;;24.40;66.70;;;;;;4974283;28;20407;-71
2022/07/30 00:46:59;;;;;;;6.80;4.87;;;24.40;66.60;;;;;;4987853;28;20481;-71
2022/07/30 00:49:25;;;;;;;4.30;3.90;;;24.40;66.50;;;;;;4971670;28;20426;-69
2022/07/30 00:51:54;;;;;;;4.87;4.20;;;24.30;66.50;;;;;;4973485;28;20893;-71
2022/07/30 00:54:20;;;;;;;4.73;3.97;;;24.30;66.60;;;;;;4956464;28;20493;-71
2022/07/30 00:56:47;;;;;;;4.70;4.20;;;24.30;66.70;;;;;;4973439;28;20518;-71
2022/07/30 00:59:13;;;;;;;4.83;3.90;;;24.30;66.70;;;;;;4988240;28;20418;-71
2022/07/30 01:01:40;;;;;;;6.00;4.57;;;24.30;66.90;;;;;;4972265;28;20450;-71
2022/07/30 01:04:11;;;;;;;5.90;4.13;;;24.30;67.00;;;;;;4936991;28;20473;-71
2022/07/30 01:06:39;;;;;;;4.43;4.03;;;24.20;66.80;;;;;;4938942;28;21043;-71
2022/07/30 01:09:07;;;;;;;4.90;4.50;;;24.20;66.70;;;;;;4972387;28;20414;-71
2022/07/30 01:11:40;;;;;;;6.10;4.80;;;24.20;66.80;;;;;;4987187;28;20430;-71
2022/07/30 01:14:07;;;;;;;4.77;4.37;;;24.20;66.90;;;;;;4956628;28;20466;-71
2022/07/30 01:16:38;;;;;;;4.30;3.90;;;24.20;66.90;;;;;;4972165;28;20497;-71
2022/07/30 01:22:15;;;;;;;6.20;4.20;;;24.20;67.00;;;;;;4984587;28;20447;-71
2022/07/30 01:25:03;;;;;;;4.10;3.43;;;24.20;67.00;;;;;;4960104;28;20433;-71
2022/07/30 01:27:34;;;;;;;4.23;3.83;;;24.20;67.20;;;;;;4980894;28;20980;-71
2022/07/30 01:30:04;;;;;;;4.33;3.90;;;24.10;67.10;;;;;;4987995;28;20477;-71
2022/07/30 01:32:32;;;;;;;4.80;4.00;;;24.10;67.10;;;;;;4971748;28;20433;-71
2022/07/30 01:34:59;;;;;;;8.93;4.07;;;24.10;67.30;;;;;;4971405;28;20966;-71
2022/07/30 01:37:30;;;;;;;4.43;3.87;;;24.10;67.20;;;;;;4952591;29;20481;-71
2022/07/30 01:39:57;;;;;;;4.20;3.80;;;24.10;67.10;;;;;;4962083;28;20441;-71
2022/07/30 01:42:26;;;;;;;4.33;3.93;;;24.10;67.10;;;;;;4936456;29;20432;-71
2022/07/30 01:44:53;;;;;;;4.07;3.67;;;24.10;67.20;;;;;;4983153;28;20436;-71
2022/07/30 01:47:23;;;;;;;4.33;3.80;;;24.10;67.10;;;;;;4972640;28;21042;-71
2022/07/30 01:49:52;;;;;;;5.80;4.03;;;24.00;67.10;;;;;;4955240;28;20450;-71
2022/07/30 01:52:29;;;;;;;5.40;4.40;;;24.00;67.10;;;;;;4971972;28;20506;-71
2022/07/30 01:55:04;;;;;;;5.63;3.50;;;24.00;67.20;;;;;;4971714;28;20478;-71
2022/07/30 01:57:31;;;;;;;4.70;3.40;;;24.00;67.20;;;;;;4955712;28;21003;-71
2022/07/30 02:00:03;;;;;;;4.27;3.70;;;24.00;67.20;;;;;;4971436;28;20426;-71
2022/07/30 02:02:43;;;;;;;5.00;3.80;;;23.90;67.10;;;;;;4972132;28;20469;-71
2022/07/30 02:05:09;;;;;;;4.00;3.43;;;23.90;67.10;;;;;;4971824;28;20417;-71
2022/07/30 02:07:51;;;;;;;3.63;3.33;;;23.90;67.20;;;;;;4955096;28;20461;-71
2022/07/30 02:10:28;;;;;;;4.50;3.87;;;23.90;67.20;;;;;;4972943;28;20525;-71
2022/07/30 02:12:56;;;;;;;4.20;3.80;;;23.90;67.20;;;;;;4971261;28;20429;-71
2022/07/30 02:15:44;;;;;;;3.80;3.40;;;23.90;67.30;;;;;;4987857;28;20407;-71
2022/07/30 02:18:26;;;;;;;4.90;3.93;;;23.90;67.30;;;;;;4972452;28;20516;-71
2022/07/30 02:21:00;;;;;;;4.00;3.70;;;23.80;67.30;;;;;;4955437;28;20472;-71
2022/07/30 02:23:29;;;;;;;4.30;3.90;;;23.80;67.40;;;;;;4990506;28;20437;-71
2022/07/30 02:26:02;;;;;;;3.97;3.60;;;23.80;67.50;;;;;;4990892;28;20899;-71
2022/07/30 02:28:37;;;;;;;3.77;3.20;;;23.80;67.40;;;;;;4974453;28;20477;-71
2022/07/30 02:31:06;;;;;;;4.53;4.13;;;23.80;67.50;;;;;;4975091;28;20438;-71
2022/07/30 02:33:36;;;;;;;5.17;3.30;;;23.80;67.60;;;;;;4958282;28;20515;-71
2022/07/30 02:36:04;;;;;;;4.37;3.97;;;23.80;67.60;;;;;;4974960;28;20513;-71
2022/07/30 02:38:37;;;;;;;4.27;3.97;;;23.80;67.60;;;;;;4975923;28;20418;-71
2022/07/30 02:41:10;;;;;;;4.07;3.67;;;23.80;67.60;;;;;;4974782;28;20441;-71
2022/07/30 02:43:39;;;;;;;4.07;3.70;;;23.70;67.50;;;;;;4991135;28;20784;-71
2022/07/30 02:46:08;;;;;;;4.00;3.60;;;23.70;67.50;;;;;;4986545;28;20760;-71
2022/07/30 02:48:56;;;;;;;4.10;3.50;;;23.70;67.40;;;;;;4960466;28;20422;-71
2022/07/30 02:51:24;;;;;;;5.90;3.83;;;23.70;67.50;;;;;;4975599;28;20454;-71
2022/07/30 02:53:52;;;;;;;4.20;3.80;;;23.70;67.60;;;;;;4974750;28;20445;-71
2022/07/30 02:56:26;;;;;;;5.77;4.00;;;23.70;67.50;;;;;;4974689;28;20434;-71
2022/07/30 02:59:00;;;;;;;3.67;3.37;;;23.70;67.70;;;;;;4958337;28;20442;-71
2022/07/30 03:01:26;;;;;;;5.47;3.63;;;23.70;67.60;;;;;;4974259;28;20469;-71
2022/07/30 03:03:53;;;;;;;4.00;3.60;;;23.70;67.70;;;;;;4971824;28;20477;-71
2022/07/30 03:06:23;;;;;;;3.37;3.07;;;23.60;67.60;;;;;;4975362;28;20511;-71
2022/07/30 03:08:53;;;;;;;3.50;3.20;;;23.60;67.60;;;;;;4974200;28;20518;-71
2022/07/30 03:11:25;;;;;;;3.53;3.23;;;23.60;67.60;;;;;;4990059;28;21022;-71
2022/07/30 03:13:54;;;;;;;4.07;3.67;;;23.60;67.60;;;;;;4974340;28;20892;-71
2022/07/30 03:16:22;;;;;;;3.60;3.30;;;23.60;67.60;;;;;;4974523;28;20477;-71
2022/07/30 03:18:49;;;;;;;4.47;3.60;;;23.60;67.60;;;;;;4974092;28;20422;-71
2022/07/30 03:21:22;;;;;;;4.00;3.20;;;23.60;67.70;;;;;;4990274;28;20450;-71
2022/07/30 03:23:49;;;;;;;3.73;2.97;;;23.60;67.70;;;;;;4974384;28;20836;-71
2022/07/30 03:26:21;;;;;;;4.17;3.77;;;23.50;67.60;;;;;;4975531;28;20442;-71
2022/07/30 03:28:48;;;;;;;3.60;3.30;;;23.50;67.70;;;;;;4958033;28;20995;-71
2022/07/30 03:31:15;;;;;;;5.17;3.47;;;23.50;67.70;;;;;;4990033;28;20525;-71
2022/07/30 03:33:42;;;;;;;4.10;3.20;;;23.50;67.60;;;;;;4973376;28;20421;-71
2022/07/30 03:36:12;;;;;;;3.70;3.40;;;23.50;67.70;;;;;;4974198;28;20432;-71
2022/07/30 03:38:42;;;;;;;3.80;3.17;;;23.40;67.60;;;;;;4970615;28;20555;-71
2022/07/30 03:41:10;;;;;;;3.13;2.77;;;23.50;67.80;;;;;;4989579;28;20450;-71
2022/07/30 03:43:39;;;;;;;3.70;3.17;;;23.40;67.60;;;;;;4957799;28;21107;-71
2022/07/30 03:46:08;;;;;;;3.77;3.33;;;23.40;67.60;;;;;;4974014;28;20418;-71
2022/07/30 03:48:41;;;;;;;3.67;3.30;;;23.40;67.60;;;;;;4984978;28;20434;-71
2022/07/30 03:51:09;;;;;;;3.70;3.20;;;23.40;67.70;;;;;;4986920;28;20971;-71
2022/07/30 03:53:39;;;;;;;3.20;3.00;;;23.40;67.70;;;;;;4973735;28;20422;-71
2022/07/30 03:56:26;;;;;;;3.50;3.10;;;23.40;67.70;;;;;;4974681;28;20476;-71
2022/07/30 03:59:04;;;;;;;3.67;3.37;;;23.30;67.70;;;;;;4975442;28;20446;-71
2022/07/30 04:01:34;;;;;;;3.43;3.13;;;23.40;67.90;;;;;;4964933;28;20450;-71
2022/07/30 04:04:10;;;;;;;3.30;3.00;;;23.30;67.80;;;;;;4973613;28;20941;-71
2022/07/30 04:06:41;;;;;;;3.50;3.20;;;23.30;67.70;;;;;;4957722;28;20462;-71
2022/07/30 04:09:09;;;;;;;3.73;3.43;;;23.30;67.70;;;;;;4973451;28;20509;-71
2022/07/30 04:11:39;;;;;;;5.60;3.30;;;23.30;67.80;;;;;;4989341;28;20505;-71
2022/07/30 04:14:09;;;;;;;3.90;3.53;;;23.30;67.80;;;;;;4957531;28;20435;-71
2022/07/30 04:17:01;;;;;;;3.43;3.13;;;23.20;67.70;;;;;;4989463;28;20445;-71
2022/07/30 04:19:52;;;;;;;3.50;3.20;;;23.30;67.90;;;;;;4970161;28;20426;-71
2022/07/30 04:22:31;;;;;;;3.87;3.40;;;23.20;67.80;;;;;;4973542;28;21014;-71
2022/07/30 04:25:00;;;;;;;9.20;3.37;;;23.20;67.80;;;;;;4972821;28;20432;-71
2022/07/30 04:27:27;;;;;;;3.40;3.10;;;23.20;67.80;;;;;;4988877;28;20484;-71
2022/07/30 04:29:54;;;;;;;4.33;3.93;;;23.20;67.80;;;;;;4957066;28;20945;-71
2022/07/30 04:32:21;;;;;;;3.63;3.33;;;23.20;67.90;;;;;;4962792;28;20470;-71
2022/07/30 04:35:12;;;;;;;4.70;3.70;;;23.20;67.80;;;;;;4960345;28;20816;-71
2022/07/30 04:38:02;;;;;;;3.90;3.60;;;23.20;67.80;;;;;;4973731;28;20457;-71
2022/07/30 04:40:31;;;;;;;3.30;3.00;;;23.10;67.60;;;;;;4973155;28;20955;-71
2022/07/30 04:42:58;;;;;;;4.40;3.30;;;23.10;67.50;;;;;;4956709;28;21097;-71
2022/07/30 04:45:24;;;;;;;3.40;3.10;;;23.10;67.50;;;;;;4973077;28;20934;-71
2022/07/30 04:47:56;;;;;;;3.83;2.93;;;23.10;67.70;;;;;;4943226;28;20450;-70
2022/07/30 04:50:28;;;;;;;3.40;3.10;;;23.10;67.80;;;;;;4957631;28;20458;-71
2022/07/30 04:52:57;;;;;;;3.60;3.17;;;23.10;67.70;;;;;;4972707;28;20418;-71
2022/07/30 04:55:31;;;;;;;3.97;3.10;;;23.10;67.70;;;;;;4989043;28;20820;-70
2022/07/30 04:58:01;;;;;;;3.07;2.80;;;23.10;67.70;;;;;;4988628;28;20932;-71
2022/07/30 05:00:31;;;;;;;3.83;3.40;;;23.10;67.70;;;;;;4988809;28;20517;-68
2022/07/30 05:03:00;;;;;;;4.03;3.30;;;23.10;67.60;;;;;;4971814;28;20442;-70
2022/07/30 05:05:31;;;;;;;3.63;3.33;;;23.10;67.60;;;;;;4956750;28;20406;-70
2022/07/30 05:07:58;;;;;;;4.67;3.80;;;23.00;67.70;;;;;;4972147;28;20508;-71
2022/07/30 05:10:26;;;;;;;4.40;3.30;;;23.00;67.80;;;;;;4972672;28;20823;-71
2022/07/30 05:12:55;;;;;;;4.33;3.27;;;23.00;67.90;;;;;;4972520;28;20413;-71
2022/07/30 05:15:22;;;;;;;3.90;3.53;;;23.00;67.80;;;;;;4972520;28;20786;-70
2022/07/30 05:17:49;;;;;;;3.60;3.30;;;23.00;67.90;;;;;;4972319;28;20778;-71
2022/07/30 05:20:17;;;;;;;6.23;3.40;;;23.00;68.00;;;;;;4968944;28;20470;-71
2022/07/30 05:23:07;;;;;;;3.50;3.17;;;23.00;68.00;;;;;;4972521;28;20496;-71
2022/07/30 05:25:34;;;;;;;3.53;3.23;;;23.00;68.00;;;;;;4972347;28;20433;-71
2022/07/30 05:28:15;;;;;;;3.57;3.27;;;23.00;68.10;;;;;;4956173;28;20465;-71
2022/07/30 05:30:42;;;;;;;3.97;3.57;;;23.00;68.20;;;;;;4956053;28;20835;-71
2022/07/30 05:33:13;;;;;;;3.93;3.43;;;22.90;68.20;;;;;;4972371;28;20515;-70
2022/07/30 05:35:40;;;;;;;3.43;3.13;;;22.90;68.40;;;;;;4971939;28;20524;-70
2022/07/30 05:38:06;;;;;;;3.30;2.87;;;22.90;68.40;;;;;;4971972;28;20452;-71
2022/07/30 05:40:43;;;;;;;4.40;3.30;;;22.90;68.40;;;;;;4971553;28;20497;-69
2022/07/30 05:43:38;;;;;;;4.87;3.43;;;22.90;68.40;;;;;;4967107;28;20453;-70
2022/07/30 05:46:04;;;;;;;4.27;3.87;;;22.90;68.70;;;;;;4969797;28;20781;-71
2022/07/30 05:48:33;;;;;;;4.60;4.10;;;22.90;68.80;;;;;;4938302;28;20416;-70
2022/07/30 05:51:04;;;;;;;6.33;4.63;;;22.90;68.90;;;;;;4970192;28;20465;-70
2022/07/30 05:53:30;;;;;;;5.83;5.03;;;22.90;69.10;;;;;;4985475;28;20920;-70
2022/07/30 05:56:21;;;;;;;7.10;5.20;;;22.90;69.10;;;;;;4952475;28;20444;-70
2022/07/30 05:59:01;;;;;;;6.20;5.60;;;22.90;69.20;;;;;;4974075;28;20438;-70
2022/07/30 06:01:59;;;;;;;9.53;6.33;;;22.90;69.20;;;;;;4972904;28;20524;-70
2022/07/30 06:04:34;;;;;;;11.43;6.80;;;22.90;69.60;;;;;;4958337;28;21173;-70
2022/07/30 06:07:13;;;;;;;8.50;6.47;;;22.90;69.70;;;;;;4972979;28;20564;-70
2022/07/30 06:09:39;;;;;;;8.50;7.20;;;22.80;69.60;;;;;;4974016;28;20445;-70
2022/07/30 06:12:09;;;;;;;12.23;8.10;;;22.80;69.70;;;;;;4973734;28;20457;-70
2022/07/30 06:14:37;;;;;;;11.70;7.70;;;22.80;70.10;;;;;;4974006;28;20449;-70
2022/07/30 06:17:05;;;;;;;10.20;7.40;;;22.80;70.00;;;;;;4989431;28;20520;-69
2022/07/30 06:19:52;;;;;;;12.10;8.40;;;22.80;70.00;;;;;;4974342;28;20445;-69
2022/07/30 06:22:18;;;;;;;9.73;8.13;;;22.80;70.10;;;;;;4974812;28;20854;-70
2022/07/30 06:24:49;;;;;;;11.03;8.90;;;22.80;70.30;;;;;;4973654;28;20410;-70
2022/07/30 06:27:18;;;;;;;12.67;8.83;;;22.80;70.20;;;;;;4973243;28;20481;-70
2022/07/30 06:29:44;;;;;;;12.47;9.90;;;22.80;70.40;;;;;;4973174;28;20460;-70
2022/07/30 06:32:11;;;;;;;14.70;10.13;;;22.80;70.60;;;;;;4973233;28;20457;-70
2022/07/30 06:34:37;;;;;;;15.37;9.93;;;22.80;70.50;;;;;;4953674;29;20433;-70
2022/07/30 06:37:05;;;;;;;13.63;9.57;;;22.80;70.70;;;;;;5017853;23;20500;-73
2022/07/30 06:39:31;;;;;;;13.30;10.40;;;22.80;71.00;;;;;;4968642;28;20510;-73
2022/07/30 06:42:00;;;;;;;12.87;9.53;;;22.80;70.80;;;;;;4937183;29;20450;-72
2022/07/30 06:44:29;;;;;;;12.87;10.70;;;22.70;70.70;;;;;;4936354;29;20415;-72
2022/07/30 06:47:20;;;;;;;13.67;10.50;;;22.80;71.50;;;;;;4925786;29;20539;-73
2022/07/30 06:49:46;;;;;;;15.43;12.13;;;22.80;71.30;;;;;;4941197;29;20428;-72
2022/07/30 06:52:12;;;;;;;14.57;10.40;;;22.80;71.50;;;;;;4939114;29;20451;-73
2022/07/30 06:54:43;;;;;;;11.27;10.10;;;22.70;71.70;;;;;;4937234;29;20430;-73
2022/07/30 06:57:22;;;;;;;11.57;9.93;;;22.70;71.60;;;;;;4942536;29;21108;-74
2022/07/30 06:59:51;;;;;;;11.77;9.00;;;22.70;71.50;;;;;;4936817;29;20458;-73
2022/07/30 07:02:27;;;;;;;13.13;10.90;;;22.70;71.60;;;;;;4941937;29;20430;-73
2022/07/30 07:05:09;;;;;;;14.80;9.97;;;22.70;71.50;;;;;;4952933;29;20478;-73
2022/07/30 07:07:36;;;;;;;11.40;10.20;;;22.70;71.60;;;;;;4925337;29;20893;-73
2022/07/30 07:10:03;;;;;;;11.77;10.33;;;22.70;71.80;;;;;;4932411;29;20408;-73
2022/07/30 07:12:44;;;;;;;12.10;9.87;;;22.70;72.00;;;;;;4935024;29;20967;-73
2022/07/30 07:15:13;;;;;;;14.23;10.23;;;22.70;71.90;;;;;;4929011;29;20423;-73
2022/07/30 07:17:44;;;;;;;10.17;9.17;;;22.70;72.20;;;;;;4920405;29;21252;-72
2022/07/30 07:20:35;;;;;;;12.20;10.03;;;22.70;72.10;;;;;;4946417;29;20451;-73
2022/07/30 07:23:06;;;;;;;10.83;9.73;;;22.60;71.80;;;;;;4952346;29;20820;-73
2022/07/30 07:25:33;;;;;;;10.80;9.70;;;22.60;71.70;;;;;;4922674;29;20445;-72
2022/07/30 07:28:03;;;;;;;11.60;10.10;;;22.70;71.80;;;;;;4951147;29;21013;-72
2022/07/30 07:30:32;;;;;;;11.90;9.27;;;22.60;71.80;;;;;;4939862;29;20868;-73
2022/07/30 07:32:59;;;;;;;9.97;8.93;;;22.70;72.10;;;;;;4935456;29;20438;-72
2022/07/30 07:35:28;;;;;;;9.83;8.60;;;22.70;72.10;;;;;;4922932;29;20451;-72
2022/07/30 07:37:54;;;;;;;9.90;8.60;;;22.70;71.90;;;;;;4920509;29;20530;-73
2022/07/30 07:40:24;;;;;;;9.03;7.97;;;22.70;71.90;;;;;;4921027;29;20507;-73
2022/07/30 07:42:52;;;;;;;9.13;8.10;;;22.70;71.60;;;;;;4904357;29;20518;-74
2022/07/30 07:45:21;;;;;;;9.27;8.37;;;22.60;71.30;;;;;;4944542;29;20442;-72
2022/07/30 07:48:02;;;;;;;10.97;8.60;;;22.60;71.30;;;;;;4947987;29;20572;-72
2022/07/30 07:50:47;;;;;;;8.87;8.07;;;22.60;71.60;;;;;;4934024;29;20439;-72
2022/07/30 07:53:24;;;;;;;9.67;8.50;;;22.60;71.50;;;;;;4939657;29;20454;-73
2022/07/30 07:55:51;;;;;;;9.13;7.70;;;22.70;71.40;;;;;;4936303;29;20403;-73
2022/07/30 07:58:18;;;;;;;9.10;8.23;;;22.60;71.20;;;;;;4940843;29;20427;-72
2022/07/30 08:00:50;;;;;;;8.77;7.73;;;22.70;71.40;;;;;;4948164;29;20442;-72
2022/07/30 08:03:18;;;;;;;7.80;7.00;;;22.70;71.40;;;;;;4919103;29;20518;-73
2022/07/30 08:05:43;;;;;;;8.20;7.43;;;22.70;71.30;;;;;;4916970;29;20829;-73
2022/07/30 08:08:38;;;;;;;8.10;7.20;;;22.70;71.40;;;;;;4930823;29;20765;-74
2022/07/30 08:11:23;;;;;;;10.40;8.20;;;22.70;71.40;;;;;;4951396;29;20732;-73
2022/07/30 08:14:10;;;;;;;8.67;7.87;;;22.70;71.30;;;;;;4950876;28;20466;-73
2022/07/30 08:16:59;;;;;;;7.93;7.13;;;22.70;71.20;;;;;;4907553;29;20436;-72
2022/07/30 08:19:46;;;;;;;7.67;6.90;;;22.80;71.30;;;;;;4932804;29;20444;-73
2022/07/30 08:22:18;;;;;;;7.53;6.50;;;22.80;71.20;;;;;;4920793;29;20461;-73
2022/07/30 08:24:47;;;;;;;7.80;7.00;;;22.80;71.20;;;;;;4950839;29;20741;-73
2022/07/30 08:27:13;;;;;;;7.63;6.93;;;22.80;71.30;;;;;;4943239;29;20463;-72
2022/07/30 08:29:39;;;;;;;6.53;5.93;;;22.80;71.20;;;;;;4932467;29;20570;-72
2022/07/30 08:32:07;;;;;;;6.43;5.83;;;22.80;71.30;;;;;;4933042;29;20457;-72
2022/07/30 08:34:39;;;;;;;8.30;6.10;;;22.80;71.10;;;;;;4932661;29;20439;-73
2022/07/30 08:37:05;;;;;;;7.00;6.40;;;22.90;71.50;;;;;;4949396;29;20458;-73
2022/07/30 08:39:33;;;;;;;5.80;5.20;;;22.90;71.60;;;;;;4951104;29;20908;-72
2022/07/30 08:42:03;;;;;;;6.13;5.53;;;22.90;71.60;;;;;;4921929;29;20503;-73
2022/07/30 08:44:31;;;;;;;7.23;6.10;;;22.90;71.70;;;;;;4944789;28;20475;-73
2022/07/30 08:47:00;;;;;;;6.60;5.30;;;22.90;71.60;;;;;;4919022;29;20666;-73
2022/07/30 08:49:38;;;;;;;6.27;5.63;;;22.90;71.50;;;;;;4918285;29;20452;-73
2022/07/30 08:52:09;;;;;;;6.30;5.80;;;22.90;71.30;;;;;;4936849;29;20735;-72
2022/07/30 08:54:41;;;;;;;6.60;5.87;;;22.90;71.40;;;;;;4952012;29;20446;-73
2022/07/30 08:57:07;;;;;;;5.70;5.13;;;23.00;71.60;;;;;;4950051;28;20506;-73
2022/07/30 08:59:39;;;;;;;5.43;5.00;;;23.00;71.70;;;;;;4934006;29;20411;-72
2022/07/30 09:02:05;;;;;;;6.07;5.50;;;23.00;71.70;;;;;;4918212;29;20472;-73
2022/07/30 09:04:35;;;;;;;5.20;4.70;;;23.00;71.80;;;;;;4933694;29;20464;-74
2022/07/30 09:07:02;;;;;;;7.27;5.53;;;23.00;72.60;;;;;;4934064;29;20841;-75
2022/07/30 09:09:28;;;;;;;6.30;5.00;;;23.00;71.80;;;;;;4934283;29;20431;-75
2022/07/30 09:11:55;;;;;;;5.97;4.77;;;23.10;72.00;;;;;;4936136;29;20459;-76
2022/07/30 09:14:24;;;;;;;5.73;5.10;;;23.10;72.00;;;;;;4954825;29;20477;-76
2022/07/30 09:16:56;;;;;;;5.67;4.70;;;23.20;72.20;;;;;;4922728;29;20941;-74
2022/07/30 09:19:23;;;;;;;5.90;5.40;;;23.20;72.20;;;;;;4930310;29;20440;-73
2022/07/30 09:21:59;;;;;;;5.60;4.93;;;23.20;72.20;;;;;;4917193;29;20459;-73
2022/07/30 09:24:57;;;;;;;10.10;5.23;;;23.20;71.90;;;;;;4914352;29;20444;-73
2022/07/30 09:27:51;;;;;;;5.40;4.40;;;23.30;72.10;;;;;;4919584;29;20497;-73
2022/07/30 09:30:52;;;;;;;6.50;5.80;;;23.30;72.20;;;;;;4933012;29;20450;-73
2022/07/30 09:33:40;;;;;;;6.00;5.40;;;23.30;72.10;;;;;;4944665;29;20426;-73
2022/07/30 09:36:30;;;;;;;6.10;5.20;;;23.30;71.80;;;;;;4932692;29;20447;-74
2022/07/30 09:39:36;;;;;;;5.27;4.87;;;23.40;71.80;;;;;;4928014;29;20468;-73
2022/07/30 09:42:27;;;;;;;4.90;4.50;;;23.40;71.50;;;;;;4958106;28;20483;-74
2022/07/30 09:45:11;;;;;;;6.30;4.10;;;23.40;71.50;;;;;;4937663;29;20424;-74
2022/07/30 09:47:49;;;;;;;7.17;4.83;;;23.40;71.30;;;;;;4927187;29;20486;-73
2022/07/30 09:50:19;;;;;;;5.53;4.67;;;23.50;71.20;;;;;;4931914;29;20805;-74
2022/07/30 09:52:49;;;;;;;4.47;4.07;;;23.50;71.10;;;;;;4915652;29;20866;-74
2022/07/30 09:55:30;;;;;;;4.87;4.03;;;23.50;71.10;;;;;;4922033;29;20593;-74
2022/07/30 09:58:02;;;;;;;4.93;4.53;;;23.50;70.90;;;;;;4941466;29;20930;-74
2022/07/30 10:00:30;;;;;;;4.97;4.47;;;23.60;70.90;;;;;;4915248;29;20447;-74
2022/07/30 10:03:24;;;;;;;5.30;4.00;;;23.60;70.90;;;;;;4901494;29;20470;-73
2022/07/30 10:06:35;;;;;;;4.53;4.13;;;23.60;70.70;;;;;;4890955;29;20466;-74
2022/07/30 10:09:22;;;;;;;4.17;3.67;;;23.70;70.70;;;;;;4924436;29;20471;-75
2022/07/30 10:11:54;;;;;;;4.63;4.20;;;23.70;70.50;;;;;;4932300;29;20451;-74
2022/07/30 10:14:29;;;;;;;4.93;4.00;;;23.70;70.40;;;;;;4931065;29;20440;-74
2022/07/30 10:16:57;;;;;;;5.20;4.53;;;23.80;70.40;;;;;;4939638;29;20426;-74
2022/07/30 10:19:24;;;;;;;4.30;3.90;;;23.80;70.10;;;;;;4930621;29;20902;-75
2022/07/30 10:22:34;;;;;;;4.87;4.03;;;23.80;70.00;;;;;;4857011;29;20905;-74
2022/07/30 10:25:32;;;;;;;4.27;3.87;;;23.90;69.90;;;;;;4847576;29;20466;-76
2022/07/30 10:28:30;;;;;;;5.63;3.70;;;23.90;69.60;;;;;;4882780;29;20478;-74
2022/07/30 10:30:57;;;;;;;3.90;3.50;;;23.90;69.40;;;;;;4901293;29;20983;-74
2022/07/30 10:33:28;;;;;;;4.90;4.40;;;24.00;69.30;;;;;;4938917;28;20446;-75
2022/07/30 10:35:55;;;;;;;6.03;4.07;;;24.00;69.10;;;;;;4922038;29;20971;-74
2022/07/30 10:38:31;;;;;;;11.40;4.53;;;24.10;69.00;;;;;;4913909;29;20424;-75
2022/07/30 10:41:23;;;;;;;5.53;3.60;;;24.10;63.80;;;;;;4915578;29;20582;-75
2022/07/30 10:44:10;;;;;;;8.37;4.00;;;24.20;62.60;;;;;;4927640;29;20623;-75
2022/07/30 10:46:44;;;;;;;6.70;3.50;;;24.20;59.40;;;;;;4953253;29;20466;-75
2022/07/30 10:49:12;;;;;;;30.40;4.90;;;24.10;60.70;;;;;;4935656;29;20443;-76
2022/07/30 10:51:44;;;;;;;5.63;3.40;;;24.00;61.90;;;;;;4937524;29;20453;-75
2022/07/30 10:54:34;;;;;;;9.93;3.80;;;24.10;61.80;;;;;;4953937;29;20791;-74
2022/07/30 10:57:18;;;;;;;12.97;4.50;;;24.10;62.40;;;;;;4951555;29;20419;-75
2022/07/30 10:59:48;;;;;;;10.10;4.80;;;24.10;61.30;;;;;;4953334;29;20453;-75
2022/07/30 11:02:19;;;;;;;7.30;4.20;;;24.20;61.90;;;;;;4926181;29;20444;-75
2022/07/30 11:04:51;;;;;;;7.33;4.17;;;24.30;62.40;;;;;;4936673;29;20181;-74
2022/07/30 11:07:26;;;;;;;4.97;4.20;;;24.40;61.90;;;;;;4943353;28;20475;-76
2022/07/30 11:10:02;;;;;;;7.33;3.50;;;24.40;61.90;;;;;;4937232;29;20834;-74
2022/07/30 11:12:40;;;;;;;11.80;3.60;;;24.50;61.60;;;;;;4946518;28;20458;-74
2022/07/30 11:15:11;;;;;;;11.03;3.57;;;24.60;59.40;;;;;;4954827;28;20399;-75
2022/07/30 11:18:04;;;;;;;6.63;3.63;;;24.60;59.80;;;;;;4928878;29;21043;-76
2022/07/30 11:20:34;;;;;;;7.43;3.30;;;24.70;59.90;;;;;;4934402;29;21244;-75
2022/07/30 11:23:23;;;;;;;7.60;3.73;;;24.80;59.40;;;;;;4938393;29;20838;-75
2022/07/30 11:25:49;;;;;;;12.80;4.43;;;24.80;60.20;;;;;;4937388;29;20978;-75
2022/07/30 11:28:37;;;;;;;3.83;3.10;;;24.90;58.80;;;;;;4950910;28;20565;-75
2022/07/30 11:31:29;;;;;;;4.70;3.43;;;24.90;58.70;;;;;;4936166;28;20447;-75
2022/07/30 11:34:33;;;;;;;5.20;3.10;;;25.00;59.60;;;;;;4934578;29;20471;-75
2022/07/30 11:37:09;;;;;;;6.27;3.73;;;25.10;58.10;;;;;;4913808;29;20482;-75
2022/07/30 11:39:55;;;;;;;4.20;3.67;;;25.10;59.00;;;;;;4898879;29;20463;-75
2022/07/30 11:42:26;;;;;;;5.50;4.20;;;25.20;60.00;;;;;;4887869;29;20786;-75
2022/07/30 11:45:15;;;;;;;7.07;3.93;;;25.20;60.10;;;;;;4914210;29;20461;-75
2022/07/30 11:47:55;;;;;;;4.20;3.67;;;25.30;59.60;;;;;;4921317;29;20544;-75
2022/07/30 11:50:21;;;;;;;6.93;3.80;;;25.30;59.50;;;;;;4918633;29;20543;-73
2022/07/30 11:52:51;;;;;;;3.97;3.50;;;25.30;59.60;;;;;;4900530;29;20432;-74
2022/07/30 11:55:25;;;;;;;5.33;3.33;;;25.40;58.50;;;;;;4929361;29;20444;-75
2022/07/30 11:57:52;;;;;;;6.03;3.70;;;25.50;57.90;;;;;;4897189;29;20443;-75
2022/07/30 12:00:20;;;;;;;5.27;3.63;;;25.50;57.80;;;;;;4928337;29;21383;-73
2022/07/30 12:02:51;;;;;;;3.90;3.60;;;25.50;56.80;;;;;;4909528;29;20862;-74
2022/07/30 12:05:25;;;;;;;4.13;3.47;;;25.50;55.40;;;;;;4885345;29;20467;-74
2022/07/30 12:07:57;;;;;;;3.43;3.13;;;25.60;55.70;;;;;;4897130;29;20475;-75
2022/07/30 12:10:58;;;;;;;4.47;3.13;;;25.60;55.70;;;;;;4959722;28;20862;-75
2022/07/30 12:13:30;;;;;;;4.70;3.57;;;25.60;56.20;;;;;;4936148;28;20898;-75
2022/07/30 12:15:56;;;;;;;4.13;3.17;;;25.70;55.80;;;;;;4913743;29;20595;-75
2022/07/30 12:18:27;;;;;;;6.87;3.40;;;25.70;55.60;;;;;;4933199;29;20435;-74
2022/07/30 12:21:07;;;;;;;3.23;2.93;;;25.80;55.90;;;;;;4948327;29;20612;-76
2022/07/30 12:23:34;;;;;;;3.60;3.13;;;25.80;54.90;;;;;;4936071;29;20514;-73
2022/07/30 12:26:01;;;;;;;3.57;2.97;;;25.80;54.60;;;;;;4937129;29;20399;-75
2022/07/30 12:28:30;;;;;;;4.33;2.50;;;25.80;54.60;;;;;;4938719;29;20477;-75
2022/07/30 12:30:57;;;;;;;3.53;3.10;;;25.80;55.10;;;;;;4954522;29;20431;-77
2022/07/30 12:33:24;;;;;;;3.97;3.00;;;25.80;55.40;;;;;;4941981;28;20951;-77
2022/07/30 12:35:54;;;;;;;3.50;3.20;;;25.90;54.90;;;;;;4944925;29;20451;-75
2022/07/30 12:38:47;;;;;;;4.93;2.87;;;25.90;54.50;;;;;;4925494;29;20440;-74
2022/07/30 12:41:16;;;;;;;5.10;3.10;;;25.90;55.40;;;;;;4934911;29;20503;-74
2022/07/30 12:43:42;;;;;;;4.70;3.50;;;26.00;55.40;;;;;;4936178;29;20404;-76
2022/07/30 12:46:09;;;;;;;4.90;3.03;;;26.10;55.30;;;;;;4938259;29;20523;-74
2022/07/30 12:48:47;;;;;;;3.10;2.80;;;26.10;54.90;;;;;;4936024;29;20519;-76
2022/07/30 12:51:53;;;;;;;3.00;2.43;;;26.10;55.10;;;;;;4895885;29;20459;-74
2022/07/30 12:54:19;;;;;;;5.20;2.53;;;26.10;55.80;;;;;;4895817;29;20482;-73
2022/07/30 12:57:00;;;;;;;3.60;2.83;;;26.10;55.90;;;;;;4898824;29;20966;-73
2022/07/30 12:59:27;;;;;;;5.23;2.53;;;26.10;55.70;;;;;;4898779;29;20462;-73
2022/07/30 13:01:56;;;;;;;2.93;2.40;;;26.10;56.20;;;;;;4898474;29;20456;-74
2022/07/30 13:04:23;;;;;;;5.80;2.27;;;26.20;56.70;;;;;;4898902;29;20425;-73
2022/07/30 13:07:16;;;;;;;6.43;2.40;;;26.30;56.20;;;;;;4888052;29;20475;-73
2022/07/30 13:09:42;;;;;;;15.37;3.10;;;26.40;56.30;;;;;;4917650;29;21001;-73
2022/07/30 13:12:12;;;;;;;2.40;2.00;;;26.40;56.60;;;;;;4906505;29;20809;-74
2022/07/30 13:14:38;;;;;;;3.90;3.07;;;26.50;56.80;;;;;;4895442;29;20413;-74
2022/07/30 13:17:08;;;;;;;3.53;1.90;;;26.60;56.30;;;;;;4898966;29;21023;-74
2022/07/30 13:19:41;;;;;;;4.60;2.00;;;26.70;56.20;;;;;;4880290;29;20456;-74